sensor_id;sensor_type;location;lat;lon;timestamp;P1;durP1;ratioP1;P2;durP2;ratioP2
51260;SDS011;61705;46.228;24.812;2022-12-07T00:01:08;70.22;;;35.22;;
51260;SDS011;61705;46.228;24.812;2022-12-07T00:03:37;73.95;;;34.50;;
51260;SDS011;61705;46.228;24.812;2022-12-07T00:06:08;76.43;;;36.53;;
51260;SDS011;61705;46.228;24.812;2022-12-07T00:08:37;67.68;;;30.92;;
51260;SDS011;61705;46.228;24.812;2022-12-07T00:11:05;72.78;;;34.08;;
51260;SDS011;61705;46.228;24.812;2022-12-07T00:13:37;79.38;;;36.95;;
51260;SDS011;61705;46.228;24.812;2022-12-07T00:16:06;72.15;;;35.95;;
51260;SDS011;61705;46.228;24.812;2022-12-07T00:18:36;71.85;;;35.40;;
51260;SDS011;61705;46.228;24.812;2022-12-07T00:21:25;69.90;;;34.22;;
51260;SDS011;61705;46.228;24.812;2022-12-07T00:23:59;81.50;;;35.55;;
51260;SDS011;61705;46.228;24.812;2022-12-07T00:26:30;67.68;;;35.88;;
51260;SDS011;61705;46.228;24.812;2022-12-07T00:29:03;71.95;;;35.25;;
51260;SDS011;61705;46.228;24.812;2022-12-07T00:31:50;68.63;;;33.67;;
51260;SDS011;61705;46.228;24.812;2022-12-07T00:34:20;65.38;;;30.45;;
51260;SDS011;61705;46.228;24.812;2022-12-07T00:36:47;67.65;;;32.00;;
51260;SDS011;61705;46.228;24.812;2022-12-07T00:39:14;82.30;;;38.47;;
51260;SDS011;61705;46.228;24.812;2022-12-07T00:41:41;76.22;;;35.03;;
51260;SDS011;61705;46.228;24.812;2022-12-07T00:44:08;73.47;;;32.92;;
51260;SDS011;61705;46.228;24.812;2022-12-07T00:46:35;73.32;;;35.33;;
51260;SDS011;61705;46.228;24.812;2022-12-07T00:49:02;75.82;;;37.33;;
51260;SDS011;61705;46.228;24.812;2022-12-07T00:51:28;77.93;;;36.75;;
51260;SDS011;61705;46.228;24.812;2022-12-07T00:53:55;73.95;;;37.33;;
51260;SDS011;61705;46.228;24.812;2022-12-07T00:56:26;83.60;;;37.85;;
51260;SDS011;61705;46.228;24.812;2022-12-07T00:58:55;87.13;;;39.47;;
51260;SDS011;61705;46.228;24.812;2022-12-07T01:01:23;73.78;;;37.08;;
51260;SDS011;61705;46.228;24.812;2022-12-07T01:03:52;83.68;;;36.67;;
51260;SDS011;61705;46.228;24.812;2022-12-07T01:06:19;71.93;;;33.53;;
51260;SDS011;61705;46.228;24.812;2022-12-07T01:08:47;77.40;;;38.63;;
51260;SDS011;61705;46.228;24.812;2022-12-07T01:11:16;68.65;;;34.42;;
51260;SDS011;61705;46.228;24.812;2022-12-07T01:13:44;67.18;;;34.47;;
51260;SDS011;61705;46.228;24.812;2022-12-07T01:16:12;76.70;;;38.17;;
51260;SDS011;61705;46.228;24.812;2022-12-07T01:18:41;65.43;;;33.83;;
51260;SDS011;61705;46.228;24.812;2022-12-07T01:21:11;68.45;;;34.20;;
51260;SDS011;61705;46.228;24.812;2022-12-07T01:23:41;68.47;;;34.10;;
51260;SDS011;61705;46.228;24.812;2022-12-07T01:26:10;66.95;;;32.53;;
51260;SDS011;61705;46.228;24.812;2022-12-07T01:28:38;63.38;;;32.85;;
51260;SDS011;61705;46.228;24.812;2022-12-07T01:31:06;69.95;;;32.47;;
51260;SDS011;61705;46.228;24.812;2022-12-07T01:33:35;76.55;;;36.15;;
51260;SDS011;61705;46.228;24.812;2022-12-07T01:38:34;63.92;;;30.98;;
51260;SDS011;61705;46.228;24.812;2022-12-07T01:41:01;56.85;;;28.45;;
51260;SDS011;61705;46.228;24.812;2022-12-07T01:43:29;65.20;;;31.30;;
51260;SDS011;61705;46.228;24.812;2022-12-07T01:45:57;67.32;;;32.33;;
51260;SDS011;61705;46.228;24.812;2022-12-07T01:48:26;62.20;;;31.60;;
51260;SDS011;61705;46.228;24.812;2022-12-07T01:50:57;63.38;;;31.27;;
51260;SDS011;61705;46.228;24.812;2022-12-07T01:53:29;60.50;;;31.13;;
51260;SDS011;61705;46.228;24.812;2022-12-07T01:55:58;84.95;;;43.83;;
51260;SDS011;61705;46.228;24.812;2022-12-07T01:58:25;103.65;;;58.20;;
51260;SDS011;61705;46.228;24.812;2022-12-07T02:00:52;87.07;;;43.53;;
51260;SDS011;61705;46.228;24.812;2022-12-07T02:03:24;66.10;;;30.73;;
51260;SDS011;61705;46.228;24.812;2022-12-07T02:05:57;71.53;;;33.67;;
51260;SDS011;61705;46.228;24.812;2022-12-07T02:08:26;75.25;;;38.40;;
51260;SDS011;61705;46.228;24.812;2022-12-07T02:10:53;106.82;;;51.30;;
51260;SDS011;61705;46.228;24.812;2022-12-07T02:13:22;86.10;;;45.15;;
51260;SDS011;61705;46.228;24.812;2022-12-07T02:18:36;84.03;;;42.92;;
51260;SDS011;61705;46.228;24.812;2022-12-07T02:24:14;113.53;;;54.55;;
51260;SDS011;61705;46.228;24.812;2022-12-07T02:35:24;78.47;;;41.72;;
51260;SDS011;61705;46.228;24.812;2022-12-07T02:40:49;97.80;;;44.78;;
51260;SDS011;61705;46.228;24.812;2022-12-07T02:43:24;102.68;;;45.13;;
51260;SDS011;61705;46.228;24.812;2022-12-07T02:46:32;88.03;;;44.33;;
51260;SDS011;61705;46.228;24.812;2022-12-07T02:48:53;89.03;;;46.17;;
51260;SDS011;61705;46.228;24.812;2022-12-07T02:51:21;89.07;;;45.85;;
51260;SDS011;61705;46.228;24.812;2022-12-07T02:53:48;83.88;;;42.40;;
51260;SDS011;61705;46.228;24.812;2022-12-07T03:04:00;81.65;;;39.22;;
51260;SDS011;61705;46.228;24.812;2022-12-07T03:06:43;83.03;;;38.83;;
51260;SDS011;61705;46.228;24.812;2022-12-07T03:09:27;76.95;;;36.85;;
51260;SDS011;61705;46.228;24.812;2022-12-07T03:12:06;78.18;;;37.45;;
51260;SDS011;61705;46.228;24.812;2022-12-07T03:14:40;75.28;;;35.30;;
51260;SDS011;61705;46.228;24.812;2022-12-07T03:17:27;64.13;;;32.45;;
51260;SDS011;61705;46.228;24.812;2022-12-07T03:19:57;70.15;;;34.05;;
51260;SDS011;61705;46.228;24.812;2022-12-07T03:22:28;62.75;;;30.42;;
51260;SDS011;61705;46.228;24.812;2022-12-07T03:24:58;60.88;;;30.10;;
51260;SDS011;61705;46.228;24.812;2022-12-07T03:27:28;64.25;;;32.42;;
51260;SDS011;61705;46.228;24.812;2022-12-07T03:30:04;62.83;;;31.67;;
51260;SDS011;61705;46.228;24.812;2022-12-07T03:40:46;48.75;;;25.70;;
51260;SDS011;61705;46.228;24.812;2022-12-07T03:43:19;56.40;;;25.58;;
51260;SDS011;61705;46.228;24.812;2022-12-07T03:46:29;52.33;;;26.30;;
51260;SDS011;61705;46.228;24.812;2022-12-07T03:49:04;52.75;;;26.15;;
51260;SDS011;61705;46.228;24.812;2022-12-07T03:52:07;50.70;;;24.35;;
51260;SDS011;61705;46.228;24.812;2022-12-07T03:57:18;49.88;;;21.85;;
51260;SDS011;61705;46.228;24.812;2022-12-07T03:59:46;40.22;;;19.88;;
51260;SDS011;61705;46.228;24.812;2022-12-07T04:02:13;47.15;;;20.90;;
51260;SDS011;61705;46.228;24.812;2022-12-07T04:04:41;41.13;;;20.20;;
51260;SDS011;61705;46.228;24.812;2022-12-07T04:07:09;45.63;;;21.58;;
51260;SDS011;61705;46.228;24.812;2022-12-07T04:09:58;50.10;;;23.48;;
51260;SDS011;61705;46.228;24.812;2022-12-07T04:12:26;47.97;;;22.48;;
51260;SDS011;61705;46.228;24.812;2022-12-07T04:14:53;50.42;;;24.98;;
51260;SDS011;61705;46.228;24.812;2022-12-07T04:17:19;54.80;;;25.02;;
51260;SDS011;61705;46.228;24.812;2022-12-07T04:19:46;44.65;;;20.67;;
51260;SDS011;61705;46.228;24.812;2022-12-07T04:22:13;47.88;;;22.15;;
51260;SDS011;61705;46.228;24.812;2022-12-07T04:24:39;43.53;;;20.20;;
51260;SDS011;61705;46.228;24.812;2022-12-07T04:27:06;39.03;;;21.48;;
51260;SDS011;61705;46.228;24.812;2022-12-07T04:29:33;39.90;;;20.02;;
51260;SDS011;61705;46.228;24.812;2022-12-07T04:31:59;38.63;;;18.73;;
51260;SDS011;61705;46.228;24.812;2022-12-07T04:34:26;43.95;;;19.27;;
51260;SDS011;61705;46.228;24.812;2022-12-07T04:36:54;36.58;;;17.55;;
51260;SDS011;61705;46.228;24.812;2022-12-07T04:39:23;37.50;;;17.95;;
51260;SDS011;61705;46.228;24.812;2022-12-07T04:41:55;43.75;;;17.85;;
51260;SDS011;61705;46.228;24.812;2022-12-07T04:44:22;44.92;;;21.17;;
51260;SDS011;61705;46.228;24.812;2022-12-07T04:46:50;52.05;;;21.35;;
51260;SDS011;61705;46.228;24.812;2022-12-07T04:49:18;37.92;;;19.83;;
51260;SDS011;61705;46.228;24.812;2022-12-07T04:51:45;49.88;;;22.85;;
51260;SDS011;61705;46.228;24.812;2022-12-07T04:54:12;44.97;;;20.20;;
51260;SDS011;61705;46.228;24.812;2022-12-07T04:56:39;41.40;;;19.75;;
51260;SDS011;61705;46.228;24.812;2022-12-07T04:59:06;42.10;;;20.83;;
51260;SDS011;61705;46.228;24.812;2022-12-07T05:01:33;48.30;;;25.55;;
51260;SDS011;61705;46.228;24.812;2022-12-07T05:04:00;60.33;;;28.75;;
51260;SDS011;61705;46.228;24.812;2022-12-07T05:06:27;49.90;;;23.13;;
51260;SDS011;61705;46.228;24.812;2022-12-07T05:08:54;47.13;;;23.05;;
51260;SDS011;61705;46.228;24.812;2022-12-07T05:11:21;49.22;;;24.73;;
51260;SDS011;61705;46.228;24.812;2022-12-07T05:14:10;43.70;;;20.70;;
51260;SDS011;61705;46.228;24.812;2022-12-07T05:16:41;48.03;;;20.98;;
51260;SDS011;61705;46.228;24.812;2022-12-07T05:19:10;45.03;;;20.48;;
51260;SDS011;61705;46.228;24.812;2022-12-07T05:21:37;48.83;;;22.42;;
51260;SDS011;61705;46.228;24.812;2022-12-07T05:24:04;45.10;;;22.83;;
51260;SDS011;61705;46.228;24.812;2022-12-07T05:26:31;51.30;;;23.58;;
51260;SDS011;61705;46.228;24.812;2022-12-07T05:28:58;46.83;;;23.10;;
51260;SDS011;61705;46.228;24.812;2022-12-07T05:31:26;67.95;;;24.73;;
51260;SDS011;61705;46.228;24.812;2022-12-07T05:33:53;50.15;;;22.80;;
51260;SDS011;61705;46.228;24.812;2022-12-07T05:36:21;49.47;;;20.90;;
51260;SDS011;61705;46.228;24.812;2022-12-07T05:38:48;45.45;;;21.05;;
51260;SDS011;61705;46.228;24.812;2022-12-07T05:41:16;39.22;;;19.40;;
51260;SDS011;61705;46.228;24.812;2022-12-07T05:44:02;43.45;;;21.30;;
51260;SDS011;61705;46.228;24.812;2022-12-07T05:46:30;49.22;;;23.52;;
51260;SDS011;61705;46.228;24.812;2022-12-07T05:48:57;42.95;;;20.70;;
51260;SDS011;61705;46.228;24.812;2022-12-07T05:51:24;48.13;;;22.85;;
51260;SDS011;61705;46.228;24.812;2022-12-07T05:53:50;98.93;;;46.72;;
51260;SDS011;61705;46.228;24.812;2022-12-07T05:56:17;45.58;;;21.77;;
51260;SDS011;61705;46.228;24.812;2022-12-07T05:58:43;41.25;;;20.25;;
51260;SDS011;61705;46.228;24.812;2022-12-07T06:01:29;42.63;;;19.77;;
51260;SDS011;61705;46.228;24.812;2022-12-07T06:03:55;37.88;;;17.67;;
51260;SDS011;61705;46.228;24.812;2022-12-07T06:06:22;41.47;;;20.20;;
51260;SDS011;61705;46.228;24.812;2022-12-07T06:08:49;29.45;;;14.43;;
51260;SDS011;61705;46.228;24.812;2022-12-07T06:11:16;35.17;;;16.40;;
51260;SDS011;61705;46.228;24.812;2022-12-07T06:14:01;41.08;;;18.30;;
51260;SDS011;61705;46.228;24.812;2022-12-07T06:16:28;40.38;;;19.20;;
51260;SDS011;61705;46.228;24.812;2022-12-07T06:18:55;36.88;;;20.33;;
51260;SDS011;61705;46.228;24.812;2022-12-07T06:21:21;37.53;;;18.13;;
51260;SDS011;61705;46.228;24.812;2022-12-07T06:23:48;44.28;;;21.52;;
51260;SDS011;61705;46.228;24.812;2022-12-07T06:26:15;42.42;;;20.42;;
51260;SDS011;61705;46.228;24.812;2022-12-07T06:28:41;37.17;;;17.38;;
51260;SDS011;61705;46.228;24.812;2022-12-07T06:31:08;29.67;;;14.05;;
51260;SDS011;61705;46.228;24.812;2022-12-07T06:33:39;28.75;;;14.77;;
51260;SDS011;61705;46.228;24.812;2022-12-07T06:36:06;22.75;;;11.20;;
51260;SDS011;61705;46.228;24.812;2022-12-07T06:38:33;23.08;;;11.48;;
51260;SDS011;61705;46.228;24.812;2022-12-07T06:41:00;21.30;;;10.27;;
51260;SDS011;61705;46.228;24.812;2022-12-07T06:43:27;19.58;;;9.50;;
51260;SDS011;61705;46.228;24.812;2022-12-07T06:45:57;22.05;;;10.35;;
51260;SDS011;61705;46.228;24.812;2022-12-07T06:48:24;25.27;;;12.13;;
51260;SDS011;61705;46.228;24.812;2022-12-07T06:50:51;27.25;;;12.82;;
51260;SDS011;61705;46.228;24.812;2022-12-07T06:53:20;38.55;;;19.50;;
51260;SDS011;61705;46.228;24.812;2022-12-07T06:55:48;25.92;;;14.50;;
51260;SDS011;61705;46.228;24.812;2022-12-07T06:58:15;30.17;;;15.55;;
51260;SDS011;61705;46.228;24.812;2022-12-07T07:00:42;28.67;;;13.88;;
51260;SDS011;61705;46.228;24.812;2022-12-07T07:03:09;29.58;;;15.55;;
51260;SDS011;61705;46.228;24.812;2022-12-07T07:05:36;41.45;;;18.73;;
51260;SDS011;61705;46.228;24.812;2022-12-07T07:08:03;46.80;;;21.30;;
51260;SDS011;61705;46.228;24.812;2022-12-07T07:10:47;47.92;;;20.48;;
51260;SDS011;61705;46.228;24.812;2022-12-07T07:13:14;35.28;;;16.75;;
51260;SDS011;61705;46.228;24.812;2022-12-07T07:15:40;31.63;;;15.38;;
51260;SDS011;61705;46.228;24.812;2022-12-07T07:18:07;35.38;;;16.45;;
51260;SDS011;61705;46.228;24.812;2022-12-07T07:20:34;27.67;;;13.43;;
51260;SDS011;61705;46.228;24.812;2022-12-07T07:23:01;30.83;;;13.88;;
51260;SDS011;61705;46.228;24.812;2022-12-07T07:25:28;34.80;;;16.95;;
51260;SDS011;61705;46.228;24.812;2022-12-07T07:27:54;36.63;;;17.85;;
51260;SDS011;61705;46.228;24.812;2022-12-07T07:30:21;38.85;;;19.90;;
51260;SDS011;61705;46.228;24.812;2022-12-07T07:32:49;26.80;;;13.77;;
51260;SDS011;61705;46.228;24.812;2022-12-07T07:35:16;29.30;;;11.80;;
51260;SDS011;61705;46.228;24.812;2022-12-07T07:37:43;29.25;;;14.25;;
51260;SDS011;61705;46.228;24.812;2022-12-07T07:40:09;25.50;;;13.77;;
51260;SDS011;61705;46.228;24.812;2022-12-07T07:42:37;29.27;;;15.27;;
51260;SDS011;61705;46.228;24.812;2022-12-07T07:45:03;22.17;;;11.50;;
51260;SDS011;61705;46.228;24.812;2022-12-07T07:47:30;31.00;;;15.30;;
51260;SDS011;61705;46.228;24.812;2022-12-07T07:49:57;25.35;;;12.00;;
51260;SDS011;61705;46.228;24.812;2022-12-07T07:52:24;19.88;;;9.98;;
51260;SDS011;61705;46.228;24.812;2022-12-07T07:54:50;21.63;;;10.93;;
51260;SDS011;61705;46.228;24.812;2022-12-07T07:57:17;16.60;;;7.93;;
51260;SDS011;61705;46.228;24.812;2022-12-07T07:59:44;17.25;;;6.68;;
51260;SDS011;61705;46.228;24.812;2022-12-07T08:02:15;15.35;;;5.07;;
51260;SDS011;61705;46.228;24.812;2022-12-07T08:04:43;15.73;;;6.18;;
51260;SDS011;61705;46.228;24.812;2022-12-07T08:07:10;17.25;;;7.32;;
51260;SDS011;61705;46.228;24.812;2022-12-07T08:09:37;26.30;;;6.57;;
51260;SDS011;61705;46.228;24.812;2022-12-07T08:12:04;12.85;;;5.63;;
51260;SDS011;61705;46.228;24.812;2022-12-07T08:14:32;22.63;;;7.85;;
51260;SDS011;61705;46.228;24.812;2022-12-07T08:17:00;21.73;;;7.43;;
51260;SDS011;61705;46.228;24.812;2022-12-07T08:19:26;19.60;;;8.63;;
51260;SDS011;61705;46.228;24.812;2022-12-07T08:21:53;21.80;;;7.07;;
51260;SDS011;61705;46.228;24.812;2022-12-07T08:24:22;14.55;;;6.13;;
51260;SDS011;61705;46.228;24.812;2022-12-07T08:26:49;23.17;;;7.85;;
51260;SDS011;61705;46.228;24.812;2022-12-07T08:29:16;15.93;;;5.13;;
51260;SDS011;61705;46.228;24.812;2022-12-07T08:31:43;12.05;;;5.65;;
51260;SDS011;61705;46.228;24.812;2022-12-07T08:34:10;21.95;;;6.80;;
51260;SDS011;61705;46.228;24.812;2022-12-07T08:36:37;10.77;;;4.72;;
51260;SDS011;61705;46.228;24.812;2022-12-07T08:39:04;12.93;;;4.20;;
51260;SDS011;61705;46.228;24.812;2022-12-07T08:41:51;18.27;;;6.43;;
51260;SDS011;61705;46.228;24.812;2022-12-07T08:44:17;36.95;;;16.23;;
51260;SDS011;61705;46.228;24.812;2022-12-07T08:46:46;12.18;;;5.32;;
51260;SDS011;61705;46.228;24.812;2022-12-07T08:49:43;32.00;;;6.95;;
51260;SDS011;61705;46.228;24.812;2022-12-07T08:52:14;21.45;;;6.90;;
51260;SDS011;61705;46.228;24.812;2022-12-07T08:54:41;12.07;;;5.45;;
51260;SDS011;61705;46.228;24.812;2022-12-07T08:57:09;19.98;;;6.55;;
51260;SDS011;61705;46.228;24.812;2022-12-07T08:59:37;12.60;;;5.35;;
51260;SDS011;61705;46.228;24.812;2022-12-07T09:02:04;12.18;;;5.68;;
51260;SDS011;61705;46.228;24.812;2022-12-07T09:04:32;11.50;;;5.18;;
51260;SDS011;61705;46.228;24.812;2022-12-07T09:06:59;12.85;;;4.82;;
51260;SDS011;61705;46.228;24.812;2022-12-07T09:09:26;10.13;;;5.32;;
51260;SDS011;61705;46.228;24.812;2022-12-07T09:11:52;15.07;;;5.28;;
51260;SDS011;61705;46.228;24.812;2022-12-07T09:14:19;12.07;;;5.95;;
51260;SDS011;61705;46.228;24.812;2022-12-07T09:16:45;15.48;;;5.78;;
51260;SDS011;61705;46.228;24.812;2022-12-07T09:19:12;23.75;;;8.27;;
51260;SDS011;61705;46.228;24.812;2022-12-07T09:21:39;16.83;;;6.97;;
51260;SDS011;61705;46.228;24.812;2022-12-07T09:24:06;34.17;;;10.65;;
51260;SDS011;61705;46.228;24.812;2022-12-07T09:26:32;24.35;;;9.98;;
51260;SDS011;61705;46.228;24.812;2022-12-07T09:28:59;25.92;;;8.80;;
51260;SDS011;61705;46.228;24.812;2022-12-07T09:31:26;26.33;;;8.00;;
51260;SDS011;61705;46.228;24.812;2022-12-07T09:33:56;45.85;;;9.43;;
51260;SDS011;61705;46.228;24.812;2022-12-07T09:36:26;13.27;;;5.22;;
51260;SDS011;61705;46.228;24.812;2022-12-07T09:38:53;21.30;;;7.60;;
51260;SDS011;61705;46.228;24.812;2022-12-07T09:41:21;21.02;;;6.65;;
51260;SDS011;61705;46.228;24.812;2022-12-07T09:43:49;45.20;;;10.48;;
51260;SDS011;61705;46.228;24.812;2022-12-07T09:46:16;62.13;;;11.57;;
51260;SDS011;61705;46.228;24.812;2022-12-07T09:48:45;36.10;;;9.95;;
51260;SDS011;61705;46.228;24.812;2022-12-07T09:53:49;21.80;;;6.70;;
51260;SDS011;61705;46.228;24.812;2022-12-07T09:56:17;19.85;;;6.45;;
51260;SDS011;61705;46.228;24.812;2022-12-07T09:58:46;28.42;;;6.47;;
51260;SDS011;61705;46.228;24.812;2022-12-07T10:01:14;32.08;;;8.98;;
51260;SDS011;61705;46.228;24.812;2022-12-07T10:06:16;25.15;;;7.75;;
51260;SDS011;61705;46.228;24.812;2022-12-07T10:08:43;24.60;;;5.82;;
51260;SDS011;61705;46.228;24.812;2022-12-07T10:11:10;54.47;;;20.58;;
51260;SDS011;61705;46.228;24.812;2022-12-07T10:13:42;18.70;;;4.97;;
51260;SDS011;61705;46.228;24.812;2022-12-07T10:18:50;21.92;;;7.13;;
51260;SDS011;61705;46.228;24.812;2022-12-07T10:21:18;30.27;;;7.68;;
51260;SDS011;61705;46.228;24.812;2022-12-07T10:29:04;34.25;;;7.82;;
51260;SDS011;61705;46.228;24.812;2022-12-07T10:31:39;19.35;;;6.53;;
51260;SDS011;61705;46.228;24.812;2022-12-07T10:34:14;12.25;;;5.60;;
51260;SDS011;61705;46.228;24.812;2022-12-07T10:36:50;12.25;;;4.95;;
51260;SDS011;61705;46.228;24.812;2022-12-07T10:39:19;67.88;;;11.23;;
51260;SDS011;61705;46.228;24.812;2022-12-07T10:41:58;17.23;;;6.35;;
51260;SDS011;61705;46.228;24.812;2022-12-07T10:44:33;28.90;;;7.47;;
51260;SDS011;61705;46.228;24.812;2022-12-07T10:47:16;38.03;;;7.93;;
51260;SDS011;61705;46.228;24.812;2022-12-07T10:52:49;11.30;;;4.20;;
51260;SDS011;61705;46.228;24.812;2022-12-07T11:00:41;30.60;;;7.68;;
51260;SDS011;61705;46.228;24.812;2022-12-07T11:03:37;34.28;;;7.97;;
51260;SDS011;61705;46.228;24.812;2022-12-07T11:15:59;35.88;;;8.93;;
51260;SDS011;61705;46.228;24.812;2022-12-07T11:35:45;31.48;;;7.47;;
51260;SDS011;61705;46.228;24.812;2022-12-07T11:38:41;22.40;;;6.95;;
51260;SDS011;61705;46.228;24.812;2022-12-07T11:41:13;39.53;;;8.35;;
51260;SDS011;61705;46.228;24.812;2022-12-07T11:43:59;40.85;;;9.73;;
51260;SDS011;61705;46.228;24.812;2022-12-07T11:49:40;53.88;;;12.20;;
51260;SDS011;61705;46.228;24.812;2022-12-07T11:54:54;26.88;;;8.32;;
51260;SDS011;61705;46.228;24.812;2022-12-07T11:57:25;48.17;;;9.40;;
51260;SDS011;61705;46.228;24.812;2022-12-07T12:00:00;46.33;;;9.88;;
51260;SDS011;61705;46.228;24.812;2022-12-07T12:02:37;51.70;;;11.13;;
51260;SDS011;61705;46.228;24.812;2022-12-07T12:05:22;23.25;;;6.53;;
51260;SDS011;61705;46.228;24.812;2022-12-07T12:08:13;26.10;;;6.75;;
51260;SDS011;61705;46.228;24.812;2022-12-07T12:17:07;78.53;;;18.67;;
51260;SDS011;61705;46.228;24.812;2022-12-07T12:22:32;34.13;;;11.27;;
51260;SDS011;61705;46.228;24.812;2022-12-07T12:25:05;20.25;;;8.13;;
51260;SDS011;61705;46.228;24.812;2022-12-07T12:27:40;42.92;;;10.82;;
51260;SDS011;61705;46.228;24.812;2022-12-07T12:33:14;64.78;;;13.18;;
51260;SDS011;61705;46.228;24.812;2022-12-07T12:50:17;35.80;;;8.02;;
51260;SDS011;61705;46.228;24.812;2022-12-07T12:53:33;40.22;;;9.63;;
51260;SDS011;61705;46.228;24.812;2022-12-07T12:56:09;24.98;;;8.57;;
51260;SDS011;61705;46.228;24.812;2022-12-07T13:01:50;40.75;;;8.60;;
51260;SDS011;61705;46.228;24.812;2022-12-07T13:04:24;41.75;;;8.45;;
51260;SDS011;61705;46.228;24.812;2022-12-07T13:06:54;48.28;;;9.80;;
51260;SDS011;61705;46.228;24.812;2022-12-07T13:09:26;31.13;;;9.18;;
51260;SDS011;61705;46.228;24.812;2022-12-07T13:12:05;31.65;;;9.57;;
51260;SDS011;61705;46.228;24.812;2022-12-07T13:17:53;53.10;;;11.27;;
51260;SDS011;61705;46.228;24.812;2022-12-07T13:20:39;25.75;;;6.35;;
51260;SDS011;61705;46.228;24.812;2022-12-07T13:28:50;29.73;;;8.45;;
51260;SDS011;61705;46.228;24.812;2022-12-07T13:31:35;46.28;;;10.98;;
51260;SDS011;61705;46.228;24.812;2022-12-07T13:36:53;47.60;;;12.00;;
51260;SDS011;61705;46.228;24.812;2022-12-07T13:39:22;33.70;;;9.55;;
51260;SDS011;61705;46.228;24.812;2022-12-07T13:41:57;52.17;;;20.05;;
51260;SDS011;61705;46.228;24.812;2022-12-07T13:44:26;31.05;;;11.45;;
51260;SDS011;61705;46.228;24.812;2022-12-07T13:49:47;41.08;;;11.05;;
51260;SDS011;61705;46.228;24.812;2022-12-07T13:52:26;49.23;;;13.07;;
51260;SDS011;61705;46.228;24.812;2022-12-07T13:57:24;41.78;;;11.32;;
51260;SDS011;61705;46.228;24.812;2022-12-07T13:59:51;36.40;;;9.50;;
51260;SDS011;61705;46.228;24.812;2022-12-07T14:02:26;57.58;;;14.82;;
51260;SDS011;61705;46.228;24.812;2022-12-07T14:05:09;38.35;;;9.90;;
51260;SDS011;61705;46.228;24.812;2022-12-07T14:07:53;45.33;;;10.85;;
51260;SDS011;61705;46.228;24.812;2022-12-07T14:10:27;46.08;;;12.35;;
51260;SDS011;61705;46.228;24.812;2022-12-07T14:12:54;26.45;;;9.63;;
51260;SDS011;61705;46.228;24.812;2022-12-07T14:15:24;37.97;;;13.10;;
51260;SDS011;61705;46.228;24.812;2022-12-07T14:18:00;37.75;;;11.82;;
51260;SDS011;61705;46.228;24.812;2022-12-07T14:20:40;38.90;;;11.00;;
51260;SDS011;61705;46.228;24.812;2022-12-07T14:23:21;32.72;;;12.23;;
51260;SDS011;61705;46.228;24.812;2022-12-07T14:25:52;26.80;;;10.60;;
51260;SDS011;61705;46.228;24.812;2022-12-07T14:30:57;66.03;;;14.27;;
51260;SDS011;61705;46.228;24.812;2022-12-07T14:33:25;57.13;;;15.45;;
51260;SDS011;61705;46.228;24.812;2022-12-07T14:35:52;79.50;;;27.55;;
51260;SDS011;61705;46.228;24.812;2022-12-07T14:38:24;91.45;;;31.08;;
51260;SDS011;61705;46.228;24.812;2022-12-07T14:40:53;84.18;;;26.17;;
51260;SDS011;61705;46.228;24.812;2022-12-07T14:43:20;80.10;;;28.45;;
51260;SDS011;61705;46.228;24.812;2022-12-07T14:45:47;66.40;;;20.17;;
51260;SDS011;61705;46.228;24.812;2022-12-07T14:48:14;51.60;;;17.63;;
51260;SDS011;61705;46.228;24.812;2022-12-07T14:51:01;30.80;;;12.82;;
51260;SDS011;61705;46.228;24.812;2022-12-07T14:53:50;45.95;;;14.75;;
51260;SDS011;61705;46.228;24.812;2022-12-07T14:56:23;33.92;;;13.18;;
51260;SDS011;61705;46.228;24.812;2022-12-07T14:58:50;30.10;;;11.27;;
51260;SDS011;61705;46.228;24.812;2022-12-07T15:01:17;36.50;;;12.15;;
51260;SDS011;61705;46.228;24.812;2022-12-07T15:03:44;36.53;;;11.23;;
51260;SDS011;61705;46.228;24.812;2022-12-07T15:06:13;33.75;;;11.32;;
51260;SDS011;61705;46.228;24.812;2022-12-07T15:08:41;37.65;;;12.30;;
51260;SDS011;61705;46.228;24.812;2022-12-07T15:11:14;30.67;;;12.27;;
51260;SDS011;61705;46.228;24.812;2022-12-07T15:13:42;36.58;;;11.50;;
51260;SDS011;61705;46.228;24.812;2022-12-07T15:16:28;27.80;;;12.23;;
51260;SDS011;61705;46.228;24.812;2022-12-07T15:19:19;32.03;;;10.45;;
51260;SDS011;61705;46.228;24.812;2022-12-07T15:21:54;31.25;;;9.40;;
51260;SDS011;61705;46.228;24.812;2022-12-07T15:24:21;34.45;;;10.15;;
51260;SDS011;61705;46.228;24.812;2022-12-07T15:26:50;42.85;;;11.27;;
51260;SDS011;61705;46.228;24.812;2022-12-07T15:29:16;21.95;;;8.55;;
51260;SDS011;61705;46.228;24.812;2022-12-07T15:31:49;18.45;;;8.43;;
51260;SDS011;61705;46.228;24.812;2022-12-07T15:34:26;29.55;;;8.38;;
51260;SDS011;61705;46.228;24.812;2022-12-07T15:37:03;34.70;;;9.40;;
51260;SDS011;61705;46.228;24.812;2022-12-07T15:39:29;79.68;;;21.20;;
51260;SDS011;61705;46.228;24.812;2022-12-07T15:41:56;63.10;;;11.85;;
51260;SDS011;61705;46.228;24.812;2022-12-07T15:44:23;19.02;;;7.97;;
51260;SDS011;61705;46.228;24.812;2022-12-07T15:47:08;24.02;;;7.35;;
51260;SDS011;61705;46.228;24.812;2022-12-07T15:49:35;39.15;;;9.43;;
51260;SDS011;61705;46.228;24.812;2022-12-07T15:52:01;29.45;;;8.57;;
51260;SDS011;61705;46.228;24.812;2022-12-07T15:54:29;30.45;;;9.05;;
51260;SDS011;61705;46.228;24.812;2022-12-07T15:56:56;27.42;;;8.15;;
51260;SDS011;61705;46.228;24.812;2022-12-07T15:59:23;16.50;;;7.50;;
51260;SDS011;61705;46.228;24.812;2022-12-07T16:01:51;47.58;;;13.18;;
51260;SDS011;61705;46.228;24.812;2022-12-07T16:04:18;41.00;;;11.38;;
51260;SDS011;61705;46.228;24.812;2022-12-07T16:06:45;26.73;;;10.50;;
51260;SDS011;61705;46.228;24.812;2022-12-07T16:09:12;43.65;;;16.05;;
51260;SDS011;61705;46.228;24.812;2022-12-07T16:11:39;36.80;;;14.32;;
51260;SDS011;61705;46.228;24.812;2022-12-07T16:14:06;42.20;;;18.98;;
51260;SDS011;61705;46.228;24.812;2022-12-07T16:16:32;54.47;;;18.92;;
51260;SDS011;61705;46.228;24.812;2022-12-07T16:18:59;24.40;;;11.68;;
51260;SDS011;61705;46.228;24.812;2022-12-07T16:21:26;24.40;;;9.98;;
51260;SDS011;61705;46.228;24.812;2022-12-07T16:23:53;30.33;;;11.82;;
51260;SDS011;61705;46.228;24.812;2022-12-07T16:26:20;58.50;;;16.70;;
51260;SDS011;61705;46.228;24.812;2022-12-07T16:28:48;33.15;;;14.50;;
51260;SDS011;61705;46.228;24.812;2022-12-07T16:31:16;54.03;;;15.73;;
51260;SDS011;61705;46.228;24.812;2022-12-07T16:33:45;51.72;;;14.15;;
51260;SDS011;61705;46.228;24.812;2022-12-07T16:36:12;32.42;;;11.73;;
51260;SDS011;61705;46.228;24.812;2022-12-07T16:39:02;26.02;;;13.15;;
51260;SDS011;61705;46.228;24.812;2022-12-07T16:41:29;41.45;;;11.82;;
51260;SDS011;61705;46.228;24.812;2022-12-07T16:43:56;41.78;;;11.48;;
51260;SDS011;61705;46.228;24.812;2022-12-07T16:46:22;37.25;;;13.07;;
51260;SDS011;61705;46.228;24.812;2022-12-07T16:48:49;38.03;;;9.20;;
51260;SDS011;61705;46.228;24.812;2022-12-07T16:51:16;68.50;;;14.40;;
51260;SDS011;61705;46.228;24.812;2022-12-07T16:53:43;39.40;;;10.50;;
51260;SDS011;61705;46.228;24.812;2022-12-07T16:56:13;22.58;;;9.68;;